createdAt,value
2018-12-13T15:20:29.882Z,4.83
2018-12-13T17:51:46.829Z,6.07
2018-12-13T17:54:24.321Z,5.83
2018-12-13T17:56:53.936Z,7.50
2018-12-13T17:59:23.439Z,9.50
2018-12-13T18:01:52.756Z,8.70
2018-12-13T18:04:32.667Z,6.72
2018-12-13T18:09:54.139Z,4.80
2018-12-13T18:12:22.999Z,3.93
2018-12-13T18:14:51.860Z,3.97
2018-12-13T18:17:21.028Z,4.23
2018-12-13T18:20:10.364Z,6.90
2018-12-13T18:22:41.604Z,8.67
2018-12-13T19:23:40.321Z,4.50
2018-12-13T19:26:10.441Z,3.37
2018-12-13T19:28:42.865Z,4.23
2018-12-13T20:16:05.153Z,4.20
2018-12-13T20:18:34.081Z,5.50
2018-12-13T20:21:03.093Z,6.37
2018-12-13T20:23:32.037Z,6.87
2018-12-13T20:26:08.445Z,7.57
2018-12-13T20:28:38.565Z,5.47
2018-12-13T20:31:07.598Z,5.50
2018-12-13T20:33:42.908Z,5.73
2018-12-13T20:36:42.424Z,5.23
2018-12-13T20:42:04.904Z,6.17
2018-12-13T20:44:39.712Z,6.27
2018-12-13T20:50:01.707Z,6.70
2018-12-13T20:52:39.120Z,6.10
2018-12-13T21:08:43.039Z,4.03
2018-12-13T21:11:16.038Z,4.70
2018-12-13T21:13:45.437Z,5.47
2018-12-13T21:51:08.369Z,4.33
2018-12-13T21:53:40.884Z,4.57
2018-12-13T21:56:09.762Z,4.43
2018-12-13T21:58:38.653Z,4.73
2018-12-13T22:14:48.548Z,4.30
2018-12-13T22:20:19.709Z,4.43
2018-12-13T22:22:52.589Z,4.37
2018-12-13T22:25:32.461Z,4.73
2018-12-13T22:28:03.398Z,4.30
2018-12-13T22:30:40.689Z,4.37
2018-12-13T22:33:10.869Z,4.10
2018-12-13T22:35:41.377Z,4.93
2018-12-13T22:38:12.141Z,4.90
2018-12-13T22:40:44.405Z,4.90
2018-12-13T22:43:25.029Z,4.78
2018-12-13T22:45:56.449Z,5.20
2018-12-13T22:48:26.252Z,5.47
2018-12-13T22:50:56.289Z,5.40
2018-12-13T22:53:38.993Z,5.53
2018-12-13T22:56:08.350Z,5.70
2018-12-13T22:58:48.365Z,5.33
2018-12-13T23:01:19.948Z,4.58
2018-12-13T23:03:51.977Z,5.47
2018-12-13T23:06:24.730Z,5.57
2018-12-13T23:08:54.997Z,5.30
2018-12-13T23:11:32.580Z,5.07
2018-12-13T23:13:57.956Z,5.80
2018-12-13T23:16:36.716Z,5.73
2018-12-13T23:19:08.436Z,5.77
2018-12-13T23:21:40.236Z,5.70
2018-12-13T23:24:18.355Z,6.53
2018-12-13T23:26:51.272Z,6.30
2018-12-13T23:29:21.173Z,5.72
2018-12-13T23:31:59.756Z,5.90
2018-12-13T23:34:45.676Z,5.27
2018-12-13T23:37:20.452Z,5.95
2018-12-13T23:39:49.677Z,5.80
2018-12-13T23:42:20.340Z,5.63
2018-12-13T23:44:53.904Z,5.50
2018-12-13T23:47:26.640Z,5.25
2018-12-13T23:49:56.817Z,5.67
2018-12-13T23:52:27.468Z,5.90
2018-12-13T23:55:03.648Z,5.30
2018-12-13T23:57:34.708Z,6.70
